Time;durP1;ratioP1;P1;durP2;ratioP2;P2;SDS_P1;SDS_P2;PMS_P1;PMS_P2;Temp;Humidity;BMP_temperature;BMP_pressure;BME280_temperature;BME280_humidity;BME280_pressure;Samples;Min_cycle;Max_cycle;Signal;HPM_P1;HPM_P2
2022/05/15 00:01:37;;;;;;;21.15;6.93;;;11.00;99.90;;;;;;2229114;64;20310;-78
2022/05/15 00:04:15;;;;;;;23.50;7.90;;;11.00;99.90;;;;;;2228472;64;20212;-77
2022/05/15 00:06:54;;;;;;;20.73;7.80;;;11.00;99.90;;;;;;2227820;64;20321;-77
2022/05/15 00:09:33;;;;;;;24.55;7.30;;;11.00;99.90;;;;;;2229466;64;20218;-77
2022/05/15 00:12:16;;;;;;;23.70;8.30;;;10.90;99.90;;;;;;2229021;64;20560;-77
2022/05/15 00:18:38;;;;;;;18.20;7.60;;;10.90;99.90;;;;;;2229959;64;20279;-78
2022/05/15 00:21:18;;;;;;;23.27;8.25;;;10.90;99.90;;;;;;2228273;64;20281;-77
2022/05/15 00:23:56;;;;;;;23.67;8.32;;;10.80;99.90;;;;;;2229625;64;20227;-77
2022/05/15 00:26:37;;;;;;;22.00;7.75;;;10.80;99.90;;;;;;2229369;64;20240;-76
2022/05/15 00:29:18;;;;;;;30.80;10.02;;;10.80;99.90;;;;;;2229151;64;20184;-77
2022/05/15 00:31:57;;;;;;;25.27;8.52;;;10.80;99.90;;;;;;2229093;64;20191;-77
2022/05/15 00:34:35;;;;;;;32.58;9.50;;;10.70;99.90;;;;;;2229209;64;20320;-77
2022/05/15 00:37:12;;;;;;;20.70;8.55;;;10.70;99.90;;;;;;2229105;64;20267;-77
2022/05/15 00:39:49;;;;;;;27.05;8.77;;;10.70;99.90;;;;;;2229587;64;20221;-77
2022/05/15 00:42:30;;;;;;;21.77;8.55;;;10.60;99.90;;;;;;2229181;64;20722;-77
2022/05/15 00:45:10;;;;;;;17.60;7.70;;;10.60;99.90;;;;;;2228901;64;20526;-77
2022/05/15 00:47:48;;;;;;;26.08;9.52;;;10.60;99.90;;;;;;2228791;64;20360;-78
2022/05/15 00:50:35;;;;;;;29.00;8.52;;;10.50;99.90;;;;;;2228059;64;20226;-77
2022/05/15 00:53:16;;;;;;;23.83;8.88;;;10.50;99.90;;;;;;2228322;64;20668;-77
2022/05/15 00:55:55;;;;;;;22.63;8.57;;;10.50;99.90;;;;;;2228476;64;20206;-77
2022/05/15 00:58:39;;;;;;;19.83;8.55;;;10.40;99.90;;;;;;2227932;64;20192;-78
2022/05/15 01:01:19;;;;;;;21.42;8.52;;;10.40;99.90;;;;;;2228471;64;20251;-78
2022/05/15 01:04:00;;;;;;;30.90;8.38;;;10.40;99.90;;;;;;2228373;64;20198;-78
2022/05/15 01:06:43;;;;;;;27.15;8.70;;;10.40;99.90;;;;;;2228149;64;20155;-78
2022/05/15 01:09:19;;;;;;;27.65;8.27;;;10.40;99.90;;;;;;2228097;64;20230;-78
2022/05/15 01:11:57;;;;;;;19.83;8.48;;;10.40;99.90;;;;;;2229729;64;20801;-77
2022/05/15 01:14:34;;;;;;;22.92;7.93;;;10.30;99.90;;;;;;2229647;64;20277;-77
2022/05/15 01:17:11;;;;;;;22.20;7.90;;;10.30;99.90;;;;;;2229219;64;20273;-77
2022/05/15 01:19:48;;;;;;;21.80;9.30;;;10.30;99.90;;;;;;2229350;64;20167;-77
2022/05/15 01:22:27;;;;;;;24.98;8.57;;;10.30;99.90;;;;;;2228228;64;20214;-77
2022/05/15 01:25:14;;;;;;;23.90;7.78;;;10.20;99.90;;;;;;2228302;64;20188;-78
2022/05/15 01:28:13;;;;;;;18.02;8.18;;;10.20;99.90;;;;;;2228134;64;20171;-77
2022/05/15 01:30:52;;;;;;;18.77;8.27;;;10.20;99.90;;;;;;2228902;64;20246;-77
2022/05/15 01:33:28;;;;;;;25.35;8.63;;;10.10;99.90;;;;;;2229148;64;20208;-77
2022/05/15 01:36:06;;;;;;;17.30;9.20;;;10.10;99.90;;;;;;2229556;64;20241;-78
2022/05/15 01:38:50;;;;;;;22.33;8.82;;;10.10;99.90;;;;;;2228948;64;20192;-77
2022/05/15 01:41:29;;;;;;;21.83;7.75;;;10.00;99.90;;;;;;2228871;64;20166;-77
2022/05/15 01:44:09;;;;;;;23.48;7.65;;;10.00;99.90;;;;;;2229051;64;20238;-77
2022/05/15 01:46:50;;;;;;;21.75;8.80;;;10.00;99.90;;;;;;2228248;64;20188;-77
2022/05/15 01:49:31;;;;;;;22.90;9.05;;;10.00;99.90;;;;;;2228510;64;20207;-76
2022/05/15 01:52:08;;;;;;;19.17;8.63;;;9.90;99.90;;;;;;2229074;64;20167;-76
2022/05/15 01:54:47;;;;;;;24.50;8.43;;;9.90;99.90;;;;;;2227717;64;20298;-77
2022/05/15 01:57:26;;;;;;;23.77;9.02;;;9.80;99.90;;;;;;2227675;64;20314;-77
2022/05/15 02:00:07;;;;;;;16.58;8.07;;;9.80;99.90;;;;;;2228467;64;20745;-76
2022/05/15 02:02:45;;;;;;;21.70;8.63;;;9.80;99.90;;;;;;2227623;64;20167;-77
2022/05/15 02:05:25;;;;;;;23.48;9.00;;;9.80;99.90;;;;;;2229313;64;20311;-77
2022/05/15 02:08:02;;;;;;;21.55;8.32;;;9.80;99.90;;;;;;2227054;64;20792;-76
2022/05/15 02:10:39;;;;;;;25.02;8.75;;;9.70;99.90;;;;;;2227678;64;20715;-76
2022/05/15 02:13:15;;;;;;;22.42;8.50;;;9.70;99.90;;;;;;2228774;64;20266;-77
2022/05/15 02:15:53;;;;;;;23.48;8.93;;;9.70;99.90;;;;;;2228758;64;20184;-77
2022/05/15 02:18:37;;;;;;;25.83;7.95;;;9.70;99.90;;;;;;2228355;64;20230;-77
2022/05/15 02:21:36;;;;;;;22.27;9.25;;;9.70;99.90;;;;;;2228028;64;20360;-76
2022/05/15 02:24:14;;;;;;;27.90;8.85;;;9.60;99.90;;;;;;2228477;64;20251;-76
2022/05/15 02:26:51;;;;;;;18.58;8.77;;;9.60;99.90;;;;;;2228578;64;20182;-77
2022/05/15 02:29:29;;;;;;;26.27;9.45;;;9.60;99.90;;;;;;2228007;64;20329;-77
2022/05/15 02:32:10;;;;;;;25.02;7.85;;;9.60;99.90;;;;;;2228079;64;20277;-77
2022/05/15 02:34:49;;;;;;;21.88;7.50;;;9.60;99.90;;;;;;2227439;64;20198;-78
2022/05/15 02:37:26;;;;;;;25.10;9.57;;;9.50;99.90;;;;;;2228661;64;20280;-77
2022/05/15 02:40:05;;;;;;;29.98;9.32;;;9.50;99.90;;;;;;2229538;64;20557;-77
2022/05/15 02:42:51;;;;;;;26.45;9.23;;;9.50;99.90;;;;;;2229873;64;20306;-78
2022/05/15 02:45:29;;;;;;;24.55;9.63;;;9.40;99.90;;;;;;2228824;64;20334;-76
2022/05/15 02:51:07;;;;;;;25.23;8.23;;;9.40;99.90;;;;;;2230370;64;20328;-77
2022/05/15 02:53:45;;;;;;;23.88;9.23;;;9.30;99.90;;;;;;2229117;64;20230;-77
2022/05/15 02:56:26;;;;;;;25.17;9.77;;;9.30;99.90;;;;;;2229453;64;20162;-76
2022/05/15 02:59:03;;;;;;;21.45;8.07;;;9.30;99.90;;;;;;2229417;64;20188;-77
2022/05/15 03:01:40;;;;;;;21.45;8.73;;;9.30;99.90;;;;;;2228968;64;20724;-76
2022/05/15 03:04:21;;;;;;;22.08;7.78;;;9.30;99.90;;;;;;2228274;64;20287;-76
2022/05/15 03:06:59;;;;;;;20.70;9.15;;;9.20;99.90;;;;;;2228795;64;20163;-77
2022/05/15 03:09:36;;;;;;;23.67;8.25;;;9.30;99.90;;;;;;2227684;64;20252;-75
2022/05/15 03:12:14;;;;;;;20.80;8.10;;;9.20;99.90;;;;;;2227349;64;20167;-77
2022/05/15 03:14:53;;;;;;;24.33;9.35;;;9.20;99.90;;;;;;2227924;64;20213;-76
2022/05/15 03:17:31;;;;;;;28.98;9.85;;;9.10;99.90;;;;;;2228522;64;20233;-76
2022/05/15 03:20:19;;;;;;;28.70;9.40;;;9.10;99.90;;;;;;2227908;64;20159;-77
2022/05/15 03:22:59;;;;;;;25.67;9.00;;;9.10;99.90;;;;;;2227899;64;20275;-77
2022/05/15 03:25:39;;;;;;;25.42;8.60;;;9.10;99.90;;;;;;2228581;64;20174;-76
2022/05/15 03:28:20;;;;;;;20.58;8.43;;;9.00;99.90;;;;;;2226990;64;20271;-76
2022/05/15 03:31:00;;;;;;;21.40;9.15;;;9.00;99.90;;;;;;2227281;64;20345;-77
2022/05/15 03:33:38;;;;;;;20.50;8.40;;;9.00;99.90;;;;;;2228648;64;20215;-77
2022/05/15 03:36:19;;;;;;;21.95;8.63;;;9.00;99.90;;;;;;2229012;64;20251;-77
2022/05/15 03:38:58;;;;;;;24.05;9.05;;;9.00;99.90;;;;;;2226992;64;20191;-77
2022/05/15 03:41:36;;;;;;;25.98;8.55;;;9.00;99.90;;;;;;2228587;64;20215;-76
2022/05/15 03:44:19;;;;;;;19.83;8.90;;;9.00;99.90;;;;;;2228431;64;20175;-76
2022/05/15 03:46:56;;;;;;;21.15;9.07;;;9.00;99.90;;;;;;2228525;64;20237;-76
2022/05/15 03:49:38;;;;;;;27.60;9.07;;;9.10;99.90;;;;;;2228127;64;20192;-76
2022/05/15 03:52:21;;;;;;;28.80;8.10;;;9.00;99.90;;;;;;2226702;64;20254;-76
2022/05/15 03:54:57;;;;;;;25.38;8.93;;;9.00;99.90;;;;;;2228015;64;20744;-76
2022/05/15 03:57:33;;;;;;;23.80;8.88;;;9.00;99.90;;;;;;2228861;64;20438;-76
2022/05/15 04:00:15;;;;;;;27.33;9.65;;;9.00;99.90;;;;;;2228234;64;20649;-76
2022/05/15 04:02:53;;;;;;;33.40;8.10;;;9.10;99.90;;;;;;2226766;64;20159;-76
2022/05/15 04:05:34;;;;;;;23.17;7.82;;;9.10;99.90;;;;;;2229572;64;20167;-77
2022/05/15 04:08:13;;;;;;;27.90;7.60;;;9.10;99.90;;;;;;2229006;64;20215;-77
2022/05/15 04:10:48;;;;;;;20.20;8.23;;;9.10;99.90;;;;;;2229800;64;20179;-77
2022/05/15 04:13:26;;;;;;;21.17;7.35;;;9.10;99.90;;;;;;2228716;64;20324;-77
2022/05/15 04:16:03;;;;;;;24.50;8.85;;;9.10;99.90;;;;;;2228884;64;20182;-76
2022/05/15 04:18:44;;;;;;;21.23;7.30;;;9.10;99.90;;;;;;2230296;64;20182;-76
2022/05/15 04:21:20;;;;;;;19.77;7.93;;;9.20;99.90;;;;;;2229769;64;20196;-77
2022/05/15 04:24:02;;;;;;;28.50;8.90;;;9.20;99.90;;;;;;2229459;64;20282;-77
2022/05/15 04:26:41;;;;;;;22.88;8.73;;;9.20;99.90;;;;;;2230290;64;20320;-77
2022/05/15 04:29:21;;;;;;;18.90;7.65;;;9.20;99.90;;;;;;2227420;64;20274;-77
2022/05/15 04:32:00;;;;;;;18.90;7.07;;;9.30;99.90;;;;;;2229025;64;20222;-77
2022/05/15 04:34:38;;;;;;;23.85;8.25;;;9.30;99.90;;;;;;2229390;64;20162;-77
2022/05/15 04:37:20;;;;;;;16.17;8.05;;;9.30;99.90;;;;;;2227978;64;20377;-76
2022/05/15 04:39:58;;;;;;;19.33;7.97;;;9.30;99.90;;;;;;2229471;64;20162;-76
2022/05/15 04:42:38;;;;;;;25.05;8.18;;;9.40;99.90;;;;;;2229525;64;20167;-77
2022/05/15 04:45:21;;;;;;;20.45;7.95;;;9.40;99.90;;;;;;2229374;64;20154;-76
2022/05/15 04:48:02;;;;;;;18.95;8.27;;;9.50;99.90;;;;;;2229522;64;20174;-77
2022/05/15 04:50:42;;;;;;;21.60;8.05;;;9.50;99.90;;;;;;2229580;64;20171;-77
2022/05/15 04:53:19;;;;;;;25.38;8.25;;;9.50;99.90;;;;;;2228823;64;20330;-77
2022/05/15 04:55:57;;;;;;;26.40;8.45;;;9.60;99.90;;;;;;2228773;64;20189;-77
2022/05/15 04:58:38;;;;;;;19.75;8.10;;;9.70;99.90;;;;;;2228948;64;20327;-77
2022/05/15 05:01:18;;;;;;;27.55;8.75;;;9.70;99.90;;;;;;2228821;64;20167;-77
2022/05/15 05:03:56;;;;;;;20.92;8.38;;;9.80;99.90;;;;;;2228715;64;20281;-76
2022/05/15 05:06:35;;;;;;;18.77;8.05;;;9.80;99.90;;;;;;2227900;64;20596;-77
2022/05/15 05:09:12;;;;;;;23.85;8.68;;;9.80;99.90;;;;;;2229310;64;20177;-76
2022/05/15 05:11:52;;;;;;;27.40;8.98;;;9.80;99.90;;;;;;2229399;64;20592;-77
2022/05/15 05:14:30;;;;;;;19.83;7.35;;;9.90;99.90;;;;;;2229580;64;20167;-77
2022/05/15 05:17:10;;;;;;;20.88;7.40;;;10.00;99.90;;;;;;2225506;64;20172;-77
2022/05/15 05:19:48;;;;;;;19.38;7.68;;;10.10;99.90;;;;;;2229360;64;20171;-77
2022/05/15 05:22:27;;;;;;;21.83;8.02;;;10.10;99.90;;;;;;2229508;64;20171;-77
2022/05/15 05:25:05;;;;;;;26.95;7.65;;;10.20;99.90;;;;;;2228879;64;20642;-76
2022/05/15 05:27:42;;;;;;;19.10;7.50;;;10.20;99.90;;;;;;2227929;64;20302;-77
2022/05/15 05:30:24;;;;;;;21.65;7.63;;;10.20;99.90;;;;;;2227829;64;20163;-76
2022/05/15 05:33:03;;;;;;;20.08;7.18;;;10.30;99.90;;;;;;2229301;64;20193;-77
2022/05/15 05:35:42;;;;;;;20.27;8.32;;;10.30;99.90;;;;;;2229029;64;20230;-77
2022/05/15 05:38:22;;;;;;;23.98;8.35;;;10.40;99.90;;;;;;2229197;64;20629;-77
2022/05/15 05:41:01;;;;;;;18.65;6.85;;;10.40;99.90;;;;;;2228402;64;20572;-77
2022/05/15 05:43:37;;;;;;;18.58;7.53;;;10.50;99.90;;;;;;2228562;64;20676;-77
2022/05/15 05:46:14;;;;;;;13.32;6.25;;;10.50;99.90;;;;;;2229147;64;20613;-77
2022/05/15 05:48:54;;;;;;;17.90;6.68;;;10.60;99.90;;;;;;2228302;64;20633;-77
2022/05/15 05:51:31;;;;;;;21.95;7.45;;;10.70;99.90;;;;;;2227878;64;20182;-76
2022/05/15 05:54:08;;;;;;;17.35;6.10;;;10.80;99.90;;;;;;2227222;64;20259;-77
2022/05/15 05:56:50;;;;;;;20.65;6.40;;;10.80;99.90;;;;;;2228561;64;20333;-77
2022/05/15 05:59:27;;;;;;;20.38;6.35;;;10.90;99.90;;;;;;2228981;64;20720;-77
2022/05/15 06:02:08;;;;;;;20.63;6.65;;;10.90;99.90;;;;;;2228847;64;20213;-77
2022/05/15 06:04:50;;;;;;;17.08;7.97;;;11.00;99.90;;;;;;2228713;64;20200;-77
2022/05/15 06:07:27;;;;;;;15.73;6.03;;;11.00;99.90;;;;;;2227374;64;20210;-77
2022/05/15 06:10:02;;;;;;;18.48;7.15;;;11.10;99.90;;;;;;2227699;64;20361;-78
2022/05/15 06:12:42;;;;;;;20.77;6.80;;;11.40;99.90;;;;;;2229527;64;20220;-77
2022/05/15 06:15:21;;;;;;;20.50;6.90;;;11.20;99.90;;;;;;2229397;64;20186;-77
2022/05/15 06:17:59;;;;;;;13.50;6.15;;;11.30;99.90;;;;;;2228394;64;20988;-77
2022/05/15 06:20:37;;;;;;;24.60;6.70;;;11.50;99.90;;;;;;2228560;64;20262;-77
2022/05/15 06:23:15;;;;;;;23.77;7.07;;;11.40;99.90;;;;;;2228657;64;20192;-76
2022/05/15 06:25:55;;;;;;;14.48;6.35;;;11.50;99.90;;;;;;2228957;64;20316;-77
2022/05/15 06:28:39;;;;;;;17.58;5.57;;;11.60;99.90;;;;;;2228217;64;20184;-78
2022/05/15 06:31:20;;;;;;;16.77;6.63;;;11.70;99.90;;;;;;2228154;64;20174;-78
2022/05/15 06:33:59;;;;;;;19.10;5.65;;;11.70;99.90;;;;;;2229216;64;20255;-77
2022/05/15 06:36:38;;;;;;;21.90;6.43;;;12.20;99.90;;;;;;2229071;64;20204;-78
2022/05/15 06:39:23;;;;;;;18.08;6.13;;;11.90;99.90;;;;;;2228784;64;20222;-78
2022/05/15 06:42:11;;;;;;;16.85;5.75;;;12.00;99.90;;;;;;2227723;64;20248;-77
2022/05/15 06:45:00;;;;;;;16.42;5.80;;;12.10;99.90;;;;;;2226570;64;20220;-78
2022/05/15 06:47:40;;;;;;;18.65;6.38;;;12.10;99.90;;;;;;2229117;64;20163;-78
2022/05/15 06:50:19;;;;;;;18.85;6.28;;;12.30;99.90;;;;;;2228809;64;20158;-77
2022/05/15 06:53:03;;;;;;;21.10;7.20;;;12.40;99.90;;;;;;2229111;64;20175;-77
2022/05/15 06:58:37;;;;;;;17.90;5.75;;;12.50;99.90;;;;;;2228418;64;20174;-77
2022/05/15 07:01:15;;;;;;;13.73;5.40;;;12.60;99.90;;;;;;2228921;64;20256;-77
2022/05/15 07:04:03;;;;;;;22.02;6.78;;;12.70;99.90;;;;;;2228615;64;20288;-76
2022/05/15 07:06:41;;;;;;;12.65;5.60;;;12.80;99.90;;;;;;2228179;64;20218;-78
2022/05/15 07:09:14;;;;;;;20.65;7.10;;;12.90;99.90;;;;;;2228053;64;20536;-77
2022/05/15 07:11:46;;;;;;;16.27;5.30;;;12.90;99.90;;;;;;2228625;64;20178;-76
2022/05/15 07:14:20;;;;;;;17.63;6.10;;;13.40;99.90;;;;;;2228764;64;20184;-77
2022/05/15 07:16:53;;;;;;;15.95;5.68;;;13.10;99.90;;;;;;2228494;64;20159;-77
2022/05/15 07:19:33;;;;;;;16.48;5.43;;;13.20;99.90;;;;;;2228228;64;20178;-78
2022/05/15 07:22:14;;;;;;;17.88;5.65;;;13.20;99.90;;;;;;2228567;64;20183;-77
2022/05/15 07:24:50;;;;;;;14.48;5.68;;;13.30;99.90;;;;;;2227981;64;20323;-78
2022/05/15 07:27:28;;;;;;;11.50;4.65;;;13.40;99.90;;;;;;2227838;64;20318;-77
2022/05/15 07:30:10;;;;;;;18.75;5.45;;;13.50;99.90;;;;;;2226615;64;20578;-78
2022/05/15 07:32:46;;;;;;;19.70;5.75;;;13.60;99.90;;;;;;2227894;64;20760;-77
2022/05/15 07:35:25;;;;;;;15.88;5.05;;;13.70;99.90;;;;;;2228196;64;20198;-77
2022/05/15 07:38:03;;;;;;;10.73;5.10;;;13.70;99.90;;;;;;2229151;64;20265;-78
2022/05/15 07:40:44;;;;;;;18.98;4.97;;;13.80;99.90;;;;;;2229852;64;20254;-76
2022/05/15 07:43:28;;;;;;;14.73;4.70;;;13.90;99.90;;;;;;2230861;64;20254;-78
2022/05/15 07:46:05;;;;;;;17.45;5.07;;;14.00;99.90;;;;;;2228833;64;20234;-77
2022/05/15 07:48:41;;;;;;;8.75;4.63;;;14.10;99.90;;;;;;2228993;64;20188;-78
2022/05/15 07:51:22;;;;;;;21.20;4.85;;;14.20;99.90;;;;;;2230571;64;20192;-76
2022/05/15 07:54:01;;;;;;;13.18;3.97;;;14.30;99.90;;;;;;2229884;64;20189;-77
2022/05/15 07:56:40;;;;;;;9.77;3.45;;;14.40;99.90;;;;;;2229796;64;20192;-77
2022/05/15 07:59:18;;;;;;;14.05;4.68;;;14.40;99.90;;;;;;2228265;64;20772;-78
2022/05/15 08:01:58;;;;;;;15.95;4.57;;;14.60;99.90;;;;;;2229265;64;20187;-77
2022/05/15 08:08:00;;;;;;;11.75;3.92;;;14.60;99.80;;;;;;2229439;64;20175;-77
2022/05/15 08:10:36;;;;;;;9.45;4.00;;;14.80;99.40;;;;;;2218682;64;20292;-78
2022/05/15 08:13:25;;;;;;;12.95;4.55;;;14.90;99.20;;;;;;2228093;64;20250;-77
2022/05/15 08:16:04;;;;;;;11.68;4.13;;;14.90;98.90;;;;;;2229828;64;20212;-78
2022/05/15 08:24:33;;;;;;;14.07;4.05;;;15.60;97.70;;;;;;2228549;64;20191;-79
2022/05/15 08:27:12;;;;;;;14.90;3.90;;;15.40;97.40;;;;;;2227469;64;20653;-76
2022/05/15 08:29:52;;;;;;;15.25;4.43;;;15.30;97.20;;;;;;2229821;64;20696;-79
2022/05/15 08:32:31;;;;;;;11.57;3.65;;;15.40;97.10;;;;;;2229430;64;20216;-77
2022/05/15 08:35:08;;;;;;;15.23;5.20;;;15.50;96.80;;;;;;2228404;64;20175;-78
2022/05/15 08:37:44;;;;;;;14.20;4.28;;;15.50;96.60;;;;;;2228720;64;20339;-77
2022/05/15 08:40:31;;;;;;;8.65;3.67;;;15.60;96.20;;;;;;2228929;64;20211;-78
2022/05/15 08:43:11;;;;;;;17.10;5.05;;;15.80;96.10;;;;;;2227858;64;20362;-78
2022/05/15 08:45:59;;;;;;;12.45;4.45;;;15.80;95.90;;;;;;2229115;64;20219;-77
2022/05/15 08:48:40;;;;;;;16.30;4.30;;;15.90;95.70;;;;;;2228331;64;20182;-78
2022/05/15 08:51:20;;;;;;;16.70;4.53;;;15.90;95.30;;;;;;2229057;64;20171;-78
2022/05/15 08:54:06;;;;;;;14.10;4.20;;;16.00;94.70;;;;;;2228632;64;20561;-76
2022/05/15 08:56:50;;;;;;;11.23;3.55;;;16.10;94.30;;;;;;2229283;64;20624;-77
2022/05/15 08:59:57;;;;;;;15.68;4.28;;;16.20;93.80;;;;;;2228160;64;20182;-77
2022/05/15 09:02:41;;;;;;;12.73;4.45;;;16.30;93.30;;;;;;2230003;64;20267;-77
2022/05/15 09:05:27;;;;;;;12.45;3.92;;;16.40;93.00;;;;;;2230245;64;20195;-77
2022/05/15 09:08:36;;;;;;;9.52;3.83;;;16.40;92.80;;;;;;2230626;64;20199;-77
2022/05/15 09:15:21;;;;;;;11.10;3.25;;;16.10;92.10;;;;;;2196577;65;20193;-77
2022/05/15 09:18:05;;;;;;;13.13;4.28;;;16.80;92.20;;;;;;2197639;65;20270;-77
2022/05/15 09:20:39;;;;;;;10.52;4.22;;;16.90;91.70;;;;;;2195676;65;20197;-78
2022/05/15 09:23:18;;;;;;;10.25;3.95;;;17.00;91.20;;;;;;2196258;65;20500;-78
2022/05/15 09:25:58;;;;;;;12.73;4.07;;;17.20;90.60;;;;;;2198218;65;20272;-77
2022/05/15 09:28:42;;;;;;;10.25;4.00;;;17.30;90.50;;;;;;2196997;65;20295;-75
2022/05/15 09:31:42;;;;;;;12.48;3.67;;;17.40;90.10;;;;;;2197248;65;20256;-77
2022/05/15 09:34:27;;;;;;;12.23;3.72;;;17.50;90.00;;;;;;2197400;65;20380;-77
2022/05/15 09:40:19;;;;;;;8.65;3.17;;;17.70;89.90;;;;;;2196601;65;20181;-76
2022/05/15 09:45:57;;;;;;;12.32;3.53;;;17.70;88.30;;;;;;2197146;65;20353;-77
2022/05/15 09:48:42;;;;;;;12.60;3.75;;;18.10;87.10;;;;;;2228502;64;20171;-76
2022/05/15 09:51:30;;;;;;;6.75;3.25;;;18.50;86.10;;;;;;2229380;64;20262;-77
2022/05/15 09:54:07;;;;;;;11.75;4.20;;;18.30;85.50;;;;;;2228315;64;20238;-76
2022/05/15 09:56:44;;;;;;;9.82;3.65;;;18.40;84.70;;;;;;2228668;64;20711;-75
2022/05/15 09:59:26;;;;;;;12.45;3.72;;;18.40;83.10;;;;;;2229516;64;20167;-76
2022/05/15 10:02:03;;;;;;;11.82;3.83;;;18.50;82.20;;;;;;2227289;64;20575;-77
2022/05/15 10:04:52;;;;;;;7.45;3.70;;;18.60;81.90;;;;;;2228784;64;20196;-77
2022/05/15 10:07:40;;;;;;;10.13;3.38;;;18.70;81.50;;;;;;2226549;64;20336;-77
2022/05/15 10:10:37;;;;;;;11.70;3.63;;;18.80;80.60;;;;;;2228626;64;20186;-76
2022/05/15 10:13:32;;;;;;;8.23;3.33;;;18.90;80.70;;;;;;2227726;64;21303;-77
2022/05/15 10:16:23;;;;;;;11.10;3.38;;;19.00;80.00;;;;;;2227574;64;20319;-78
2022/05/15 10:19:18;;;;;;;9.38;3.55;;;19.10;79.60;;;;;;2228583;64;20287;-78
2022/05/15 10:22:29;;;;;;;7.47;3.60;;;19.20;79.30;;;;;;2227497;64;20214;-77
2022/05/15 10:25:31;;;;;;;8.40;3.20;;;19.30;79.40;;;;;;2226332;64;20252;-76
2022/05/15 10:28:33;;;;;;;8.18;3.47;;;19.50;78.00;;;;;;2227779;64;20675;-76
2022/05/15 10:31:22;;;;;;;9.90;3.50;;;19.60;77.40;;;;;;2228202;64;20277;-77
2022/05/15 10:34:09;;;;;;;9.70;3.33;;;19.60;76.80;;;;;;2228322;64;20186;-77
2022/05/15 10:37:01;;;;;;;12.07;3.70;;;19.80;76.10;;;;;;2228895;64;20200;-77
2022/05/15 10:39:52;;;;;;;9.80;3.50;;;19.90;75.40;;;;;;2228091;64;20159;-77
2022/05/15 10:43:04;;;;;;;8.02;2.85;;;20.10;75.10;;;;;;2228590;64;20261;-78
2022/05/15 10:49:40;;;;;;;9.27;3.50;;;20.60;75.20;;;;;;2228635;64;20305;-78
2022/05/15 10:52:39;;;;;;;6.65;3.05;;;21.00;73.80;;;;;;2227008;64;20195;-79
2022/05/15 10:58:33;;;;;;;11.73;4.10;;;23.00;69.50;;;;;;2228076;64;20170;-78
2022/05/15 11:01:21;;;;;;;7.35;3.00;;;24.10;67.90;;;;;;2228219;64;20163;-78
2022/05/15 11:04:17;;;;;;;7.72;3.30;;;25.10;65.60;;;;;;2227321;64;20196;-79
2022/05/15 11:07:09;;;;;;;7.50;3.63;;;25.90;63.00;;;;;;2227688;64;20253;-78
2022/05/15 11:09:55;;;;;;;7.00;2.80;;;26.60;61.90;;;;;;2228554;64;20572;-78
2022/05/15 11:12:45;;;;;;;;;;;27.10;60.20;;;;;;2228884;64;20379;-79
2022/05/15 11:15:30;;;;;;;9.10;3.35;;;27.40;62.20;;;;;;2229486;64;20516;-78
2022/05/15 11:18:35;;;;;;;7.80;3.25;;;27.80;57.40;;;;;;2230106;64;20645;-77
2022/05/15 11:21:21;;;;;;;7.43;3.28;;;28.30;57.30;;;;;;2229921;64;20690;-78
2022/05/15 11:24:18;;;;;;;6.00;2.72;;;28.90;54.40;;;;;;2226082;64;20295;-79
2022/05/15 11:27:00;;;;;;;6.65;2.92;;;29.40;52.80;;;;;;2229273;64;20257;-78
2022/05/15 11:29:45;;;;;;;7.10;2.92;;;29.90;51.50;;;;;;2230016;64;20657;-79
2022/05/15 11:32:32;;;;;;;7.47;3.30;;;30.40;50.90;;;;;;2228373;64;20665;-78
2022/05/15 11:35:17;;;;;;;;;;;30.70;48.70;;;;;;2229169;64;20735;-77
2022/05/15 11:37:56;;;;;;;11.27;3.88;;;30.90;51.20;;;;;;2228666;64;20102;-78
2022/05/15 11:40:36;;;;;;;8.73;3.15;;;30.90;48.00;;;;;;2229915;64;20410;-78
2022/05/15 11:43:30;;;;;;;5.25;2.25;;;31.00;47.60;;;;;;2229299;64;20242;-78
2022/05/15 11:46:11;;;;;;;4.60;2.70;;;31.80;48.50;;;;;;2228629;64;20702;-77
2022/05/15 11:48:58;;;;;;;7.97;3.25;;;32.60;46.00;;;;;;2229112;64;20313;-79
2022/05/15 11:51:35;;;;;;;7.40;3.42;;;33.40;44.50;;;;;;2230202;64;20355;-77
2022/05/15 11:54:30;;;;;;;5.15;2.53;;;34.00;43.30;;;;;;2227751;64;20250;-79
2022/05/15 11:57:19;;;;;;;5.88;2.42;;;34.60;43.00;;;;;;2230184;64;20184;-78
2022/05/15 11:59:59;;;;;;;5.70;2.75;;;35.30;42.20;;;;;;2229503;64;20170;-81
2022/05/15 12:02:52;;;;;;;7.55;2.85;;;36.10;40.90;;;;;;2230153;64;20340;-82
2022/05/15 12:05:40;;;;;;;5.57;2.47;;;36.00;40.00;;;;;;2229187;64;20224;-78
2022/05/15 12:08:28;;;;;;;6.20;3.03;;;34.70;40.30;;;;;;2221513;64;20214;-78
2022/05/15 12:11:33;;;;;;;5.80;2.60;;;33.60;40.40;;;;;;2221428;64;20239;-78
2022/05/15 12:14:29;;;;;;;8.95;3.63;;;33.30;41.40;;;;;;2222159;64;20321;-78
2022/05/15 12:17:25;;;;;;;6.50;2.67;;;33.80;41.40;;;;;;2221426;64;20239;-78
2022/05/15 12:20:17;;;;;;;5.57;2.50;;;34.60;40.80;;;;;;2219131;64;20226;-77
2022/05/15 12:22:59;;;;;;;6.10;2.45;;;35.10;40.10;;;;;;2221869;64;20703;-79
2022/05/15 12:25:49;;;;;;;7.40;2.40;;;35.70;39.20;;;;;;2222050;64;20280;-79
2022/05/15 12:28:57;;;;;;;4.93;2.28;;;36.00;38.10;;;;;;2220512;64;20167;-78
2022/05/15 12:32:00;;;;;;;;;;;;;;;;;;;;;
2022/05/15 12:34:51;;;;;;;5.80;2.65;;;36.50;37.50;;;;;;2220556;64;20179;-80
2022/05/15 12:38:03;;;;;;;3.83;2.17;;;36.70;36.90;;;;;;2220393;64;20187;-81
2022/05/15 12:41:11;;;;;;;4.63;2.05;;;37.30;37.90;;;;;;2221598;64;20171;-80
2022/05/15 12:44:08;;;;;;;5.78;2.53;;;37.70;37.00;;;;;;2220394;64;20654;-80
2022/05/15 12:47:09;;;;;;;6.70;2.70;;;37.90;36.00;;;;;;2220349;64;20248;-80
2022/05/15 12:50:36;;;;;;;6.75;2.70;;;38.30;36.10;;;;;;2220691;64;20706;-79
2022/05/15 12:53:44;;;;;;;5.78;2.40;;;39.00;36.00;;;;;;2221541;64;20308;-79
2022/05/15 12:56:38;;;;;;;6.40;2.50;;;39.60;34.80;;;;;;2220668;64;20179;-77
2022/05/15 12:59:42;;;;;;;5.20;2.65;;;40.30;34.70;;;;;;2220981;64;20220;-78
2022/05/15 13:03:02;;;;;;;8.55;7.75;;;40.60;33.60;;;;;;2219881;64;20295;-78
2022/05/15 13:05:58;;;;;;;5.53;2.70;;;41.10;33.40;;;;;;2221343;64;20346;-77
2022/05/15 13:08:54;;;;;;;5.93;2.28;;;42.00;32.60;;;;;;2228315;64;20222;-78
2022/05/15 13:11:41;;;;;;;5.45;2.83;;;42.30;32.90;;;;;;2230376;64;20200;-80
2022/05/15 13:14:20;;;;;;;6.70;2.60;;;42.50;32.10;;;;;;2229263;64;20188;-77
2022/05/15 13:16:58;;;;;;;5.03;2.67;;;42.80;32.00;;;;;;2229602;64;20204;-77
2022/05/15 13:19:51;;;;;;;4.68;2.47;;;43.10;31.80;;;;;;2229942;64;20163;-78
2022/05/15 13:22:35;;;;;;;6.50;3.38;;;43.30;31.80;;;;;;2230245;64;20179;-78
2022/05/15 13:25:27;;;;;;;6.70;2.83;;;43.40;31.00;;;;;;2230563;64;20196;-78
2022/05/15 13:28:06;;;;;;;4.78;2.75;;;43.60;31.70;;;;;;2230221;64;20214;-79
2022/05/15 13:30:44;;;;;;;7.32;3.42;;;43.90;31.00;;;;;;2230004;64;20279;-78
2022/05/15 13:33:25;;;;;;;6.05;3.20;;;44.00;30.40;;;;;;2229421;64;20793;-78
2022/05/15 13:36:04;;;;;;;5.70;2.63;;;43.80;30.50;;;;;;2230020;64;21097;-77
2022/05/15 13:44:51;;;;;;;5.97;3.10;;;43.80;30.00;;;;;;2229663;64;20248;-80
2022/05/15 13:47:29;;;;;;;5.05;2.40;;;44.00;30.30;;;;;;2228149;64;20216;-81
2022/05/15 13:50:27;;;;;;;5.35;2.30;;;44.00;30.00;;;;;;2227554;64;20724;-77
2022/05/15 13:53:24;;;;;;;5.53;2.75;;;44.10;30.10;;;;;;2228098;64;20315;-78
2022/05/15 13:56:01;;;;;;;5.70;2.50;;;44.30;30.40;;;;;;2228966;64;20212;-77
2022/05/15 13:58:59;;;;;;;4.35;2.60;;;44.10;30.00;;;;;;2228438;64;20506;-79
2022/05/15 14:01:38;;;;;;;5.20;3.67;;;43.90;30.40;;;;;;2227147;64;20383;-78
2022/05/15 14:04:46;;;;;;;4.57;2.60;;;43.90;30.00;;;;;;2231890;64;20285;-78
2022/05/15 14:07:24;;;;;;;4.60;2.42;;;44.00;30.30;;;;;;2228863;64;20178;-78
2022/05/15 14:10:21;;;;;;;5.97;2.40;;;43.90;30.40;;;;;;2229072;64;20256;-80
2022/05/15 14:12:57;;;;;;;5.72;3.05;;;43.90;30.30;;;;;;2229341;64;20271;-77
2022/05/15 14:15:33;;;;;;;5.93;2.92;;;44.20;30.00;;;;;;2229218;64;20762;-75
2022/05/15 14:18:34;;;;;;;7.13;3.40;;;44.30;30.70;;;;;;2228682;64;20654;-79
2022/05/15 14:21:23;;;;;;;4.32;2.72;;;44.30;30.70;;;;;;2227665;64;20320;-78
2022/05/15 14:24:23;;;;;;;4.32;2.65;;;44.10;30.10;;;;;;2229714;64;20701;-78
2022/05/15 14:26:58;;;;;;;6.55;3.25;;;44.10;30.10;;;;;;2227293;64;20274;-76
2022/05/15 14:29:35;;;;;;;6.95;3.38;;;43.30;30.00;;;;;;2227660;64;20200;-80
2022/05/15 14:32:24;;;;;;;6.63;3.72;;;42.80;30.60;;;;;;2230405;64;20171;-78
2022/05/15 14:35:07;;;;;;;8.15;3.83;;;42.50;31.10;;;;;;2227169;64;20353;-79
2022/05/15 14:37:45;;;;;;;20.00;5.45;;;42.10;31.70;;;;;;2229224;64;20171;-78
2022/05/15 14:40:25;;;;;;;7.63;3.50;;;41.80;32.20;;;;;;2228837;64;20314;-78
2022/05/15 14:43:02;;;;;;;8.05;4.25;;;41.50;32.70;;;;;;2229407;64;20646;-79
2022/05/15 14:45:55;;;;;;;9.52;3.85;;;41.60;32.70;;;;;;2229243;64;20167;-78
2022/05/15 14:48:39;;;;;;;7.30;3.85;;;41.30;32.60;;;;;;2227658;64;20404;-80